Time;durP1;ratioP1;P1;durP2;ratioP2;P2;SDS_P1;SDS_P2;PMS_P1;PMS_P2;Temp;Humidity;BMP_temperature;BMP_pressure;BME280_temperature;BME280_humidity;BME280_pressure;Samples;Min_cycle;Max_cycle;Signal;HPM_P1;HPM_P2
2023/01/05 06:00:05;;;;;;;2.90;0.60;;;11.30;97.20;;;;;;1681558;29;20189;-70
2023/01/05 06:00:57;;;;;;;0.82;0.52;;;11.30;97.20;;;;;;1681501;29;20232;-70
2023/01/05 06:01:51;;;;;;;1.30;0.43;;;11.30;97.20;;;;;;1681571;29;20229;-70
2023/01/05 06:02:41;;;;;;;0.80;0.50;;;11.30;97.20;;;;;;1680956;29;20279;-70
2023/01/05 06:03:33;;;;;;;0.60;0.40;;;11.30;97.20;;;;;;1681483;29;20209;-72
2023/01/05 06:04:24;;;;;;;0.82;0.40;;;11.30;97.20;;;;;;1681567;29;20209;-71
2023/01/05 06:05:16;;;;;;;0.60;0.40;;;11.30;97.20;;;;;;1681556;29;20296;-71
2023/01/05 06:06:07;;;;;;;0.60;0.47;;;11.30;97.20;;;;;;1681611;29;20233;-71
2023/01/05 06:06:58;;;;;;;0.77;0.50;;;11.30;97.20;;;;;;1681304;29;20300;-70
2023/01/05 06:07:49;;;;;;;1.77;0.60;;;11.30;97.20;;;;;;1681650;29;20695;-71
2023/01/05 06:08:41;;;;;;;1.60;0.57;;;11.30;97.20;;;;;;1681396;29;20584;-71
2023/01/05 06:09:31;;;;;;;0.60;0.45;;;11.30;97.20;;;;;;1681513;29;20217;-71
2023/01/05 06:10:23;;;;;;;1.47;0.73;;;11.30;97.20;;;;;;1680173;29;20219;-71
2023/01/05 06:11:14;;;;;;;0.70;0.50;;;11.30;97.20;;;;;;1681621;29;20216;-71
2023/01/05 06:12:06;;;;;;;1.37;0.40;;;11.30;97.20;;;;;;1681543;29;20558;-71
2023/01/05 06:12:57;;;;;;;0.60;0.50;;;11.30;97.20;;;;;;1681511;29;20209;-71
2023/01/05 06:13:48;;;;;;;0.80;0.40;;;11.30;97.20;;;;;;1681480;29;20206;-71
2023/01/05 06:14:39;;;;;;;0.80;0.40;;;11.30;97.20;;;;;;1681569;29;20217;-71
2023/01/05 06:15:32;;;;;;;1.53;0.50;;;11.30;97.20;;;;;;1681500;29;20213;-71
2023/01/05 06:16:23;;;;;;;1.25;0.40;;;11.30;97.20;;;;;;1681450;29;20581;-70
2023/01/05 06:17:15;;;;;;;1.07;0.57;;;11.30;97.20;;;;;;1681207;29;20618;-69
2023/01/05 06:18:06;;;;;;;0.60;0.40;;;11.30;97.20;;;;;;1681404;29;20220;-70
2023/01/05 06:18:57;;;;;;;1.10;0.50;;;11.30;97.20;;;;;;1681510;29;20205;-70
2023/01/05 06:19:48;;;;;;;0.75;0.40;;;11.30;97.20;;;;;;1680821;29;20240;-70
2023/01/05 06:20:40;;;;;;;0.70;0.50;;;11.30;97.20;;;;;;1679487;29;20225;-69
2023/01/05 06:21:30;;;;;;;0.90;0.50;;;11.30;97.20;;;;;;1681418;29;20569;-70
2023/01/05 06:22:22;;;;;;;0.70;0.40;;;11.30;97.20;;;;;;1680943;29;20271;-70
2023/01/05 06:23:24;;;;;;;1.17;0.40;;;11.30;97.20;;;;;;1681334;29;20323;-70
2023/01/05 06:24:16;;;;;;;1.75;0.40;;;11.30;97.20;;;;;;1681418;29;20193;-70
2023/01/05 06:25:08;;;;;;;0.70;0.50;;;11.30;97.20;;;;;;1681445;29;20232;-71
2023/01/05 06:26:00;;;;;;;0.70;0.50;;;11.30;97.20;;;;;;1681522;29;20660;-70
2023/01/05 06:26:50;;;;;;;1.35;0.60;;;11.30;97.20;;;;;;1681210;29;20209;-70
2023/01/05 06:27:42;;;;;;;0.70;0.40;;;11.30;97.20;;;;;;1681425;29;20209;-70
2023/01/05 06:28:33;;;;;;;0.60;0.40;;;11.30;97.20;;;;;;1681356;29;20209;-70
2023/01/05 06:29:24;;;;;;;0.70;0.60;;;11.30;97.20;;;;;;1680752;29;20201;-70
2023/01/05 06:30:15;;;;;;;0.60;0.40;;;11.30;97.20;;;;;;1680903;29;20209;-69
2023/01/05 06:31:08;;;;;;;1.30;0.50;;;11.30;97.20;;;;;;1680887;29;20203;-70
2023/01/05 06:31:59;;;;;;;0.70;0.50;;;11.30;97.20;;;;;;1681033;29;20826;-71
2023/01/05 06:32:51;;;;;;;1.30;0.60;;;11.30;97.20;;;;;;1680697;29;20224;-71
2023/01/05 06:33:41;;;;;;;0.80;0.50;;;11.30;97.20;;;;;;1681304;29;20210;-71
2023/01/05 06:34:33;;;;;;;1.17;0.50;;;11.30;97.20;;;;;;1680747;29;20203;-71
2023/01/05 06:35:24;;;;;;;0.70;0.50;;;11.30;97.20;;;;;;1680332;29;20598;-71
2023/01/05 06:36:16;;;;;;;0.83;0.60;;;11.30;97.20;;;;;;1680922;29;20642;-70
2023/01/05 06:37:06;;;;;;;0.70;0.50;;;11.30;97.20;;;;;;1680641;29;20647;-71
2023/01/05 06:37:58;;;;;;;0.80;0.60;;;11.30;97.20;;;;;;1681145;29;20711;-70
2023/01/05 06:38:49;;;;;;;0.90;0.70;;;11.30;97.20;;;;;;1681384;29;20580;-71
2023/01/05 06:39:40;;;;;;;0.70;0.50;;;11.30;97.20;;;;;;1681332;29;20574;-70
2023/01/05 06:40:31;;;;;;;0.70;0.50;;;11.30;97.20;;;;;;1681297;29;20232;-70
2023/01/05 06:41:23;;;;;;;0.80;0.57;;;11.30;97.20;;;;;;1681346;29;20702;-71
2023/01/05 06:42:14;;;;;;;0.70;0.50;;;11.40;97.20;;;;;;1680596;29;20237;-71
2023/01/05 06:43:06;;;;;;;0.70;0.60;;;11.40;97.20;;;;;;1678979;29;20197;-71
2023/01/05 06:43:57;;;;;;;0.63;0.45;;;11.30;97.20;;;;;;1681193;29;20224;-70
2023/01/05 06:44:48;;;;;;;0.70;0.57;;;11.40;97.20;;;;;;1681477;29;20284;-71
2023/01/05 06:45:40;;;;;;;1.00;0.60;;;11.40;97.20;;;;;;1681235;29;20212;-71
2023/01/05 06:46:32;;;;;;;0.70;0.50;;;11.40;97.20;;;;;;1681236;29;20217;-71
2023/01/05 06:47:24;;;;;;;1.45;0.50;;;11.40;97.20;;;;;;1680587;29;20272;-71
2023/01/05 06:48:15;;;;;;;0.70;0.50;;;11.40;97.20;;;;;;1681289;29;20209;-71
2023/01/05 06:49:07;;;;;;;0.60;0.50;;;11.40;97.20;;;;;;1681266;29;20200;-71
2023/01/05 06:49:58;;;;;;;1.38;0.60;;;11.40;97.20;;;;;;1681239;29;20457;-70
2023/01/05 06:50:49;;;;;;;0.70;0.50;;;11.40;97.20;;;;;;1681060;29;20228;-71
2023/01/05 06:51:40;;;;;;;1.15;0.60;;;11.40;97.20;;;;;;1681205;29;20458;-70
2023/01/05 06:52:35;;;;;;;0.70;0.50;;;11.40;97.20;;;;;;1680742;29;20205;-71
2023/01/05 06:53:26;;;;;;;1.35;0.70;;;11.40;97.20;;;;;;1681269;29;20672;-71
2023/01/05 06:54:17;;;;;;;0.80;0.50;;;11.40;97.20;;;;;;1681183;29;20566;-70
2023/01/05 06:55:10;;;;;;;0.80;0.50;;;11.40;97.20;;;;;;1681384;29;20240;-71
2023/01/05 06:56:01;;;;;;;1.55;0.43;;;11.40;97.20;;;;;;1681039;29;20268;-71
2023/01/05 06:56:52;;;;;;;0.70;0.50;;;11.40;97.20;;;;;;1680112;29;20205;-71
2023/01/05 06:57:44;;;;;;;2.20;0.50;;;11.40;97.20;;;;;;1681203;29;20209;-71
2023/01/05 06:58:34;;;;;;;0.90;0.60;;;11.40;97.20;;;;;;1681146;29;20209;-71
2023/01/05 06:59:26;;;;;;;1.43;0.60;;;11.40;97.20;;;;;;1681274;29;20211;-71
2023/01/05 07:00:17;;;;;;;0.90;0.47;;;11.40;97.20;;;;;;1681077;29;20213;-70
2023/01/05 07:01:09;;;;;;;1.83;0.70;;;11.40;97.20;;;;;;1681255;29;20304;-71
2023/01/05 07:02:01;;;;;;;1.30;0.50;;;11.50;97.20;;;;;;1681039;29;20236;-71
2023/01/05 07:02:53;;;;;;;0.80;0.50;;;11.40;97.20;;;;;;1680714;29;20233;-71
2023/01/05 07:03:44;;;;;;;0.90;0.60;;;11.40;97.20;;;;;;1681133;29;20247;-70
2023/01/05 07:04:35;;;;;;;2.07;0.60;;;11.40;97.20;;;;;;1681206;29;20212;-70
2023/01/05 07:05:26;;;;;;;2.65;0.60;;;11.40;97.20;;;;;;1681208;29;20209;-70
2023/01/05 07:06:18;;;;;;;0.80;0.60;;;11.40;97.20;;;;;;1681168;29;20209;-71
2023/01/05 07:07:10;;;;;;;0.70;0.50;;;11.40;97.20;;;;;;1680623;29;20205;-71
2023/01/05 07:08:02;;;;;;;1.13;0.75;;;11.40;97.20;;;;;;1681276;29;20280;-71
2023/01/05 07:08:53;;;;;;;0.80;0.50;;;11.50;97.20;;;;;;1681127;29;20205;-71
2023/01/05 07:09:48;;;;;;;1.00;0.60;;;11.50;97.20;;;;;;1681354;29;20209;-71
2023/01/05 07:10:39;;;;;;;1.40;0.70;;;11.50;97.20;;;;;;1681000;29;20229;-71
2023/01/05 07:11:30;;;;;;;0.65;0.47;;;11.40;97.20;;;;;;1681159;29;20267;-71
2023/01/05 07:12:22;;;;;;;0.80;0.53;;;11.40;97.20;;;;;;1680736;29;20228;-71
2023/01/05 07:13:13;;;;;;;1.10;0.60;;;11.40;97.20;;;;;;1681199;29;20449;-71
2023/01/05 07:14:04;;;;;;;1.00;0.60;;;11.40;97.20;;;;;;1680989;29;20209;-71
2023/01/05 07:14:55;;;;;;;1.45;0.70;;;11.40;97.20;;;;;;1681107;29;20205;-71
2023/01/05 07:15:47;;;;;;;1.70;0.60;;;11.40;97.20;;;;;;1681253;29;20208;-70
2023/01/05 07:16:37;;;;;;;1.15;0.70;;;11.40;97.20;;;;;;1680800;29;20217;-70
2023/01/05 07:17:31;;;;;;;1.20;0.50;;;11.40;97.20;;;;;;1676204;29;20212;-71
2023/01/05 07:18:22;;;;;;;1.80;0.77;;;11.40;97.20;;;;;;1674829;29;20210;-70
2023/01/05 07:19:14;;;;;;;1.27;0.70;;;11.40;97.20;;;;;;1674780;29;20281;-70
2023/01/05 07:20:06;;;;;;;0.85;0.50;;;11.40;97.20;;;;;;1674690;29;20202;-70
2023/01/05 07:20:59;;;;;;;2.45;0.93;;;11.40;97.20;;;;;;1674551;29;20225;-70
2023/01/05 07:21:50;;;;;;;2.40;0.60;;;11.40;97.20;;;;;;1674554;29;20202;-70
2023/01/05 07:22:42;;;;;;;0.80;0.60;;;11.40;97.20;;;;;;1674134;29;20206;-70
2023/01/05 07:23:36;;;;;;;1.08;0.60;;;11.40;97.20;;;;;;1674579;29;20209;-70
2023/01/05 07:24:28;;;;;;;1.85;0.60;;;11.40;97.20;;;;;;1674820;29;20209;-71
2023/01/05 07:25:18;;;;;;;0.85;0.60;;;11.40;97.20;;;;;;1674668;29;20218;-71
2023/01/05 07:26:10;;;;;;;2.23;0.80;;;11.40;97.20;;;;;;1674871;29;20209;-70
2023/01/05 07:27:01;;;;;;;1.17;0.80;;;11.40;97.20;;;;;;1679742;29;20209;-71
2023/01/05 07:27:53;;;;;;;1.30;1.00;;;11.40;97.20;;;;;;1675720;29;20206;-71
2023/01/05 07:28:44;;;;;;;1.55;0.82;;;11.40;97.20;;;;;;1679261;29;20225;-69
2023/01/05 07:29:35;;;;;;;1.10;0.73;;;11.40;97.20;;;;;;1674414;29;20711;-71
2023/01/05 07:30:26;;;;;;;1.13;0.85;;;11.40;97.20;;;;;;1676771;29;20216;-71
2023/01/05 07:31:18;;;;;;;1.27;0.83;;;11.40;97.20;;;;;;1680673;29;20240;-70
2023/01/05 07:32:09;;;;;;;1.88;0.80;;;11.40;97.20;;;;;;1680064;29;20216;-70
2023/01/05 07:33:02;;;;;;;1.58;0.70;;;11.40;97.20;;;;;;1680832;29;20598;-70
2023/01/05 07:33:53;;;;;;;2.53;0.70;;;11.30;97.20;;;;;;1680900;29;20205;-70
2023/01/05 07:34:45;;;;;;;2.50;0.70;;;11.30;97.20;;;;;;1680993;29;20244;-70
2023/01/05 07:35:36;;;;;;;2.72;0.70;;;11.30;97.20;;;;;;1681077;29;20213;-70
2023/01/05 07:36:27;;;;;;;2.17;1.13;;;11.30;97.20;;;;;;1680504;29;20659;-71
2023/01/05 07:37:18;;;;;;;0.70;0.60;;;11.30;97.20;;;;;;1680440;29;20687;-70
2023/01/05 07:38:10;;;;;;;0.90;0.60;;;11.30;97.20;;;;;;1680702;29;20653;-71
2023/01/05 07:39:01;;;;;;;1.23;0.70;;;11.30;97.20;;;;;;1681081;29;20212;-71
2023/01/05 07:39:53;;;;;;;1.20;0.70;;;11.30;97.20;;;;;;1680995;29;20212;-71
2023/01/05 07:40:44;;;;;;;1.10;0.70;;;11.30;97.20;;;;;;1681000;29;20477;-71
2023/01/05 07:41:36;;;;;;;1.90;0.80;;;11.30;97.20;;;;;;1680989;29;20240;-71
2023/01/05 07:44:14;;;;;;;1.00;0.90;;;11.30;97.20;;;;;;1680799;29;20666;-70
2023/01/05 07:45:06;;;;;;;2.40;0.70;;;11.30;97.20;;;;;;1680085;29;20201;-71
2023/01/05 07:45:58;;;;;;;0.70;0.60;;;11.30;97.20;;;;;;1680757;29;20280;-71
2023/01/05 07:46:49;;;;;;;1.02;0.70;;;11.30;97.20;;;;;;1680676;29;20631;-71
2023/01/05 07:47:41;;;;;;;1.40;0.80;;;11.30;97.20;;;;;;1680514;29;20880;-71
2023/01/05 07:48:33;;;;;;;1.40;0.88;;;11.30;97.20;;;;;;1681048;29;20442;-70
2023/01/05 07:49:25;;;;;;;1.65;0.82;;;11.30;97.20;;;;;;1681792;29;20586;-71
2023/01/05 07:50:16;;;;;;;1.55;1.08;;;11.30;97.20;;;;;;1682351;29;20216;-71
2023/01/05 07:51:09;;;;;;;1.03;0.87;;;11.40;97.20;;;;;;1682338;29;20240;-70
2023/01/05 07:52:00;;;;;;;1.52;1.10;;;11.30;97.20;;;;;;1684419;29;20211;-71
2023/01/05 07:52:52;;;;;;;0.93;0.73;;;11.40;97.20;;;;;;1685954;29;20283;-71
2023/01/05 07:53:43;;;;;;;1.67;0.95;;;11.40;97.20;;;;;;1682446;29;20205;-71
2023/01/05 07:54:34;;;;;;;1.80;1.00;;;11.40;97.20;;;;;;1682266;29;20212;-70
2023/01/05 07:55:25;;;;;;;1.05;0.70;;;11.40;97.20;;;;;;1682326;29;20546;-71
2023/01/05 07:56:17;;;;;;;1.20;0.70;;;11.40;97.20;;;;;;1682318;29;20643;-70
2023/01/05 07:57:08;;;;;;;1.98;0.70;;;11.40;97.20;;;;;;1682016;29;20209;-70
2023/01/05 07:58:00;;;;;;;1.37;0.60;;;11.40;97.20;;;;;;1677886;29;20216;-70
2023/01/05 07:58:51;;;;;;;1.85;0.60;;;11.40;97.20;;;;;;1685761;29;20216;-70
2023/01/05 07:59:42;;;;;;;2.60;0.70;;;11.40;97.20;;;;;;1685343;29;20206;-70
2023/01/05 08:00:33;;;;;;;2.80;0.70;;;11.40;97.20;;;;;;1684238;29;20251;-70
2023/01/05 08:01:25;;;;;;;2.40;0.80;;;11.40;97.20;;;;;;1687405;29;20248;-71
2023/01/05 08:02:16;;;;;;;1.05;0.65;;;11.40;97.20;;;;;;1682067;29;20280;-71
2023/01/05 08:03:08;;;;;;;1.57;0.70;;;11.40;97.20;;;;;;1684074;29;20265;-70
2023/01/05 08:04:00;;;;;;;1.25;0.60;;;11.40;97.20;;;;;;1682285;29;21124;-70
2023/01/05 08:04:52;;;;;;;0.70;0.50;;;11.40;97.20;;;;;;1682087;29;20208;-70
2023/01/05 08:05:43;;;;;;;2.10;0.60;;;11.40;97.20;;;;;;1682157;29;20221;-70
2023/01/05 08:06:34;;;;;;;1.67;0.60;;;11.40;97.20;;;;;;1681960;29;20711;-70
2023/01/05 08:07:26;;;;;;;2.25;0.70;;;11.40;97.20;;;;;;1681823;29;20453;-70
2023/01/05 08:08:17;;;;;;;1.52;0.80;;;11.50;97.20;;;;;;1680697;29;20209;-70
2023/01/05 08:10:29;;;;;;;1.77;0.68;;;11.50;97.20;;;;;;1668499;29;20237;-70
2023/01/05 08:11:20;;;;;;;1.10;0.70;;;11.50;97.20;;;;;;1681956;29;20240;-70
2023/01/05 08:12:12;;;;;;;1.60;0.80;;;11.50;97.20;;;;;;1682004;29;20197;-70
2023/01/05 08:14:13;;;;;;;2.10;0.75;;;11.60;97.20;;;;;;1682061;29;20196;-70
2023/01/05 08:15:06;;;;;;;1.73;0.70;;;11.60;97.20;;;;;;1682234;29;20216;-71
2023/01/05 08:15:59;;;;;;;1.65;0.80;;;11.60;97.20;;;;;;1681913;29;20445;-71
2023/01/05 08:16:51;;;;;;;1.40;0.75;;;11.60;97.20;;;;;;1681919;29;20538;-70
2023/01/05 08:17:41;;;;;;;0.70;0.68;;;11.60;97.20;;;;;;1681980;29;20209;-71
2023/01/05 08:18:33;;;;;;;0.90;0.67;;;11.60;97.20;;;;;;1681968;29;20197;-70
2023/01/05 08:19:32;;;;;;;1.25;0.80;;;11.60;97.20;;;;;;1682056;29;20213;-70
2023/01/05 08:20:23;;;;;;;1.00;0.90;;;11.60;97.20;;;;;;1681985;29;20233;-71
2023/01/05 08:21:15;;;;;;;1.20;0.63;;;11.60;97.20;;;;;;1682201;29;20718;-71
2023/01/05 08:22:06;;;;;;;1.90;0.80;;;11.60;97.20;;;;;;1682072;29;20205;-70
2023/01/05 08:22:57;;;;;;;1.37;1.17;;;11.60;97.20;;;;;;1681441;29;20312;-71
2023/01/05 08:23:49;;;;;;;2.30;1.23;;;11.70;97.20;;;;;;1682045;29;20687;-71
2023/01/05 08:24:41;;;;;;;2.65;0.70;;;11.60;97.20;;;;;;1681798;29;20209;-70
2023/01/05 08:25:32;;;;;;;1.30;0.95;;;11.70;97.20;;;;;;1682078;29;20220;-70
2023/01/05 08:26:24;;;;;;;2.10;0.83;;;11.70;97.20;;;;;;1681610;29;20232;-70
2023/01/05 08:27:15;;;;;;;1.38;0.90;;;11.70;97.20;;;;;;1681671;29;20468;-70
2023/01/05 08:28:06;;;;;;;1.40;0.82;;;11.70;97.20;;;;;;1681721;29;20209;-70
2023/01/05 08:28:58;;;;;;;1.60;0.80;;;11.60;97.20;;;;;;1681790;29;20213;-70
2023/01/05 08:29:49;;;;;;;2.33;1.10;;;11.70;97.20;;;;;;1681988;29;20248;-71
2023/01/05 08:30:47;;;;;;;3.90;1.17;;;11.60;97.20;;;;;;1681711;29;20314;-71
2023/01/05 08:33:26;;;;;;;2.53;0.77;;;11.60;97.20;;;;;;1679147;29;20200;-70
2023/01/05 08:34:17;;;;;;;2.75;1.17;;;11.60;97.20;;;;;;1676110;29;20598;-71
2023/01/05 08:35:11;;;;;;;3.20;1.13;;;11.60;97.20;;;;;;1683244;29;20634;-70
2023/01/05 08:36:07;;;;;;;2.00;0.93;;;11.60;97.20;;;;;;1686665;29;20448;-70
2023/01/05 08:36:59;;;;;;;3.53;0.98;;;11.60;97.20;;;;;;1686397;29;20252;-71
2023/01/05 08:37:50;;;;;;;4.13;1.20;;;11.60;97.20;;;;;;1683351;29;20723;-70
2023/01/05 08:38:46;;;;;;;3.88;1.35;;;11.60;97.20;;;;;;1684308;29;20200;-70
2023/01/05 08:39:37;;;;;;;2.53;1.20;;;11.60;97.20;;;;;;1688453;29;20261;-70
2023/01/05 08:40:29;;;;;;;2.47;1.20;;;11.60;97.20;;;;;;1684728;29;20278;-70
2023/01/05 08:41:22;;;;;;;2.65;1.10;;;11.70;97.20;;;;;;1681844;29;20239;-70
2023/01/05 08:42:14;;;;;;;3.15;1.27;;;11.70;97.20;;;;;;1681521;29;20613;-70
2023/01/05 08:43:05;;;;;;;3.65;1.23;;;11.70;97.20;;;;;;1681482;29;20324;-71
2023/01/05 08:43:59;;;;;;;2.25;1.00;;;11.80;97.20;;;;;;1682065;29;20209;-71
2023/01/05 08:44:49;;;;;;;2.67;0.90;;;11.80;97.20;;;;;;1681977;29;20646;-71
2023/01/05 08:45:41;;;;;;;2.67;1.03;;;11.90;97.20;;;;;;1681771;29;20759;-70
2023/01/05 08:46:35;;;;;;;4.97;1.50;;;11.90;97.20;;;;;;1681560;29;20209;-70
2023/01/05 08:47:26;;;;;;;3.65;2.08;;;11.90;97.20;;;;;;1678423;29;20250;-70
2023/01/05 08:48:17;;;;;;;2.80;1.27;;;11.90;97.20;;;;;;1680551;29;20244;-70
2023/01/05 08:49:08;;;;;;;4.03;1.70;;;11.90;97.20;;;;;;1683450;29;20209;-71
2023/01/05 08:50:00;;;;;;;4.83;1.63;;;11.90;97.20;;;;;;1683726;29;20661;-70
2023/01/05 08:50:53;;;;;;;3.90;1.30;;;11.90;97.20;;;;;;1685830;29;20472;-71
2023/01/05 08:51:45;;;;;;;3.30;1.50;;;11.90;97.20;;;;;;1683947;29;20216;-71
2023/01/05 08:52:36;;;;;;;2.70;1.40;;;11.90;97.20;;;;;;1684414;29;20204;-71
2023/01/05 08:53:28;;;;;;;4.40;1.10;;;11.90;97.20;;;;;;1683995;29;20202;-70
2023/01/05 08:54:20;;;;;;;3.30;1.40;;;12.00;97.20;;;;;;1677859;29;20221;-70
2023/01/05 08:55:11;;;;;;;5.28;1.70;;;12.00;97.20;;;;;;1675266;29;20217;-70
2023/01/05 08:56:02;;;;;;;7.70;1.50;;;12.00;97.20;;;;;;1675486;29;20217;-71
2023/01/05 08:56:53;;;;;;;2.50;1.33;;;12.00;97.20;;;;;;1679612;29;20960;-71
2023/01/05 08:57:45;;;;;;;2.70;1.20;;;12.00;97.20;;;;;;1681805;29;21078;-70
2023/01/05 08:58:36;;;;;;;4.75;1.58;;;11.90;97.20;;;;;;1681613;29;20201;-71
2023/01/05 08:59:28;;;;;;;4.63;1.10;;;11.90;97.20;;;;;;1681801;29;20248;-70
2023/01/05 09:00:20;;;;;;;6.00;1.70;;;11.90;97.20;;;;;;1681564;29;20453;-70
2023/01/05 09:01:14;;;;;;;2.47;1.10;;;11.90;97.20;;;;;;1681690;29;20257;-71
2023/01/05 09:02:04;;;;;;;5.18;1.40;;;11.90;97.20;;;;;;1681376;29;20209;-70
2023/01/05 09:02:56;;;;;;;3.13;1.73;;;11.90;97.20;;;;;;1681711;29;20316;-71
2023/01/05 09:03:47;;;;;;;3.22;1.75;;;11.90;97.20;;;;;;1681523;29;20458;-70
2023/01/05 09:04:39;;;;;;;5.57;1.80;;;11.90;97.20;;;;;;1681817;29;20209;-70
2023/01/05 09:05:30;;;;;;;4.63;1.40;;;11.90;97.20;;;;;;1681579;29;20453;-70
2023/01/05 09:06:24;;;;;;;7.20;1.48;;;11.90;97.20;;;;;;1681552;29;20240;-70
2023/01/05 09:07:14;;;;;;;3.95;2.03;;;11.90;97.20;;;;;;1681415;29;20213;-70
2023/01/05 09:08:06;;;;;;;3.83;1.47;;;11.90;97.20;;;;;;1681663;29;20241;-70
2023/01/05 09:08:58;;;;;;;6.13;1.77;;;11.90;97.20;;;;;;1681645;29;20452;-70
2023/01/05 09:09:50;;;;;;;4.70;1.83;;;11.90;97.20;;;;;;1681607;29;20668;-70
2023/01/05 09:10:41;;;;;;;4.22;1.60;;;11.90;97.20;;;;;;1681550;29;20269;-69
2023/01/05 09:11:33;;;;;;;9.98;2.55;;;12.00;97.20;;;;;;1681996;29;20723;-70
2023/01/05 09:12:24;;;;;;;6.70;1.42;;;12.00;97.20;;;;;;1681814;29;20209;-70
2023/01/05 09:13:16;;;;;;;6.60;1.93;;;12.00;97.20;;;;;;1681579;29;20266;-69
2023/01/05 09:14:10;;;;;;;4.90;1.58;;;12.00;97.20;;;;;;1681760;29;20814;-70
2023/01/05 09:15:03;;;;;;;5.57;1.70;;;12.00;97.20;;;;;;1681656;29;20205;-70
2023/01/05 09:15:54;;;;;;;4.82;2.35;;;12.10;97.20;;;;;;1681757;29;20218;-70
2023/01/05 09:16:46;;;;;;;5.00;1.43;;;12.10;97.20;;;;;;1681515;29;20216;-70
2023/01/05 09:17:37;;;;;;;5.00;1.48;;;12.20;97.20;;;;;;1681844;29;20516;-70
2023/01/05 09:18:29;;;;;;;5.53;1.73;;;12.30;97.20;;;;;;1681488;29;20292;-70
2023/01/05 09:19:20;;;;;;;6.85;2.30;;;12.30;97.20;;;;;;1681505;29;20220;-70
2023/01/05 09:20:12;;;;;;;7.40;2.17;;;12.30;97.20;;;;;;1681516;29;20205;-70
2023/01/05 09:21:03;;;;;;;3.70;1.75;;;12.30;97.20;;;;;;1681114;29;20208;-70
2023/01/05 09:21:56;;;;;;;6.07;1.77;;;12.40;97.20;;;;;;1681040;29;20202;-70
2023/01/05 09:22:48;;;;;;;8.30;2.38;;;12.40;97.20;;;;;;1681299;29;20454;-70
2023/01/05 09:23:39;;;;;;;8.02;2.17;;;12.40;97.20;;;;;;1681626;29;20216;-70
2023/01/05 09:24:30;;;;;;;7.97;2.23;;;12.50;97.20;;;;;;1681509;29;20317;-69
2023/01/05 09:25:21;;;;;;;7.30;2.20;;;12.50;97.20;;;;;;1681627;29;20480;-70
2023/01/05 09:26:14;;;;;;;7.70;2.30;;;12.50;97.20;;;;;;1681683;29;20201;-70
2023/01/05 09:27:06;;;;;;;7.72;1.42;;;12.40;97.20;;;;;;1681383;29;20221;-70
2023/01/05 09:27:58;;;;;;;6.78;2.25;;;12.40;97.20;;;;;;1679267;29;20205;-71
2023/01/05 09:28:49;;;;;;;5.30;1.52;;;12.30;97.20;;;;;;1677694;29;20205;-70
2023/01/05 09:29:40;;;;;;;7.03;2.17;;;12.30;97.20;;;;;;1680716;29;20208;-70
2023/01/05 09:30:31;;;;;;;5.35;1.73;;;12.30;97.20;;;;;;1683517;29;20515;-70
2023/01/05 09:31:24;;;;;;;8.10;2.23;;;12.20;97.20;;;;;;1682337;29;20305;-70
2023/01/05 09:32:15;;;;;;;5.18;1.80;;;12.20;97.20;;;;;;1677287;29;20480;-70
2023/01/05 09:33:06;;;;;;;8.17;2.17;;;12.20;97.20;;;;;;1680248;29;20236;-69
2023/01/05 09:33:57;;;;;;;5.07;2.10;;;12.30;97.20;;;;;;1686004;29;20204;-70
2023/01/05 09:34:49;;;;;;;6.88;2.08;;;12.30;97.20;;;;;;1685721;29;20604;-70
2023/01/05 09:35:40;;;;;;;6.60;2.35;;;12.20;97.20;;;;;;1684808;29;20691;-70
2023/01/05 09:36:32;;;;;;;13.03;2.30;;;12.30;97.20;;;;;;1683254;29;20641;-70
2023/01/05 09:37:24;;;;;;;7.68;2.97;;;12.30;97.20;;;;;;1687881;29;20578;-70
2023/01/05 09:38:16;;;;;;;8.75;2.80;;;12.40;97.20;;;;;;1687431;29;20208;-70
2023/01/05 09:39:07;;;;;;;9.85;2.22;;;12.40;97.20;;;;;;1674818;29;20660;-70
2023/01/05 09:39:59;;;;;;;7.72;2.20;;;12.50;97.20;;;;;;1681497;29;20211;-70
2023/01/05 09:40:53;;;;;;;7.43;2.10;;;12.50;97.20;;;;;;1682041;29;20225;-70
2023/01/05 09:41:49;;;;;;;9.15;2.60;;;12.50;97.20;;;;;;1681964;29;20284;-70
2023/01/05 09:42:46;;;;;;;5.70;2.00;;;12.60;97.20;;;;;;1684904;29;20581;-70
2023/01/05 09:43:40;;;;;;;5.97;1.90;;;12.60;97.20;;;;;;1681427;29;20216;-70
2023/01/05 09:44:36;;;;;;;6.38;2.50;;;12.60;97.20;;;;;;1681427;29;20208;-70
2023/01/05 09:45:27;;;;;;;11.27;2.22;;;12.60;97.20;;;;;;1681352;29;20670;-70
2023/01/05 09:46:23;;;;;;;8.32;1.95;;;12.60;97.20;;;;;;1681523;29;20400;-70
2023/01/05 09:47:17;;;;;;;12.88;3.10;;;12.70;97.20;;;;;;1679894;29;20747;-70
2023/01/05 09:48:14;;;;;;;7.97;1.77;;;12.70;97.20;;;;;;1679794;29;20194;-70
2023/01/05 09:49:11;;;;;;;5.82;2.15;;;12.70;97.20;;;;;;1681137;29;20193;-70
2023/01/05 09:50:06;;;;;;;10.32;2.55;;;12.70;97.20;;;;;;1687251;29;20724;-70
2023/01/05 09:50:57;;;;;;;11.43;2.60;;;12.70;97.20;;;;;;1682257;29;20578;-73
2023/01/05 09:51:51;;;;;;;7.23;2.70;;;12.70;97.20;;;;;;1684864;29;20622;-70
2023/01/05 09:52:43;;;;;;;10.95;2.17;;;12.80;97.20;;;;;;1685169;29;20209;-70
2023/01/05 09:53:35;;;;;;;9.68;2.30;;;12.80;97.20;;;;;;1681101;29;20897;-70
2023/01/05 09:54:28;;;;;;;9.80;2.70;;;12.90;97.20;;;;;;1681497;29;20576;-70
2023/01/05 09:55:23;;;;;;;10.13;2.72;;;13.00;97.20;;;;;;1681465;29;20205;-70
2023/01/05 09:56:25;;;;;;;9.48;2.53;;;13.00;97.20;;;;;;1681563;29;20217;-70
2023/01/05 09:57:20;;;;;;;6.13;2.28;;;13.10;97.20;;;;;;1681266;29;20198;-70
2023/01/05 09:58:15;;;;;;;5.55;1.90;;;13.30;97.20;;;;;;1681435;29;20629;-70
2023/01/05 09:59:13;;;;;;;8.77;2.33;;;13.40;97.20;;;;;;1681006;29;20204;-70
2023/01/05 10:00:07;;;;;;;8.57;2.08;;;13.50;97.20;;;;;;1681354;29;20668;-70
2023/01/05 10:01:06;;;;;;;6.65;2.95;;;13.60;97.20;;;;;;1681094;29;20230;-70
2023/01/05 10:02:00;;;;;;;12.10;2.42;;;13.70;97.20;;;;;;1680873;29;20194;-70
2023/01/05 10:02:56;;;;;;;8.25;2.15;;;13.80;97.20;;;;;;1678548;29;20202;-70
2023/01/05 10:03:56;;;;;;;9.52;2.47;;;13.80;97.20;;;;;;1679187;29;20228;-70
2023/01/05 10:04:48;;;;;;;10.23;3.03;;;13.90;97.20;;;;;;1682469;29;20228;-70
2023/01/05 10:05:42;;;;;;;9.55;2.50;;;14.00;97.20;;;;;;1681130;29;20228;-70
2023/01/05 10:06:37;;;;;;;3.47;1.40;;;14.00;97.20;;;;;;1685193;29;20209;-70
2023/01/05 10:07:47;;;;;;;8.43;2.30;;;14.00;97.20;;;;;;1682218;29;20205;-70
2023/01/05 10:08:42;;;;;;;8.23;2.35;;;14.00;97.20;;;;;;1685836;29;20212;-70
2023/01/05 10:09:38;;;;;;;5.07;1.52;;;14.00;97.20;;;;;;1680944;29;20194;-70
2023/01/05 10:10:43;;;;;;;9.38;2.13;;;14.10;97.20;;;;;;1680929;29;20223;-70
2023/01/05 10:13:02;;;;;;;9.95;2.38;;;14.10;97.20;;;;;;1681306;29;20281;-70
2023/01/05 10:14:00;;;;;;;5.75;2.33;;;14.10;97.20;;;;;;1681197;29;20289;-70
2023/01/05 10:14:57;;;;;;;8.25;2.60;;;14.10;97.20;;;;;;1683881;29;20215;-70
2023/01/05 10:15:52;;;;;;;11.32;3.20;;;14.00;97.20;;;;;;1683498;29;20197;-70
2023/01/05 10:16:45;;;;;;;6.57;2.40;;;13.90;97.20;;;;;;1684705;29;20212;-70
2023/01/05 10:17:39;;;;;;;4.72;1.70;;;13.80;97.20;;;;;;1687688;29;20228;-70
2023/01/05 10:18:33;;;;;;;7.07;2.63;;;13.80;97.20;;;;;;1683032;29;20236;-70
2023/01/05 10:19:24;;;;;;;8.82;2.58;;;13.80;97.20;;;;;;1674829;29;20246;-70
2023/01/05 10:20:17;;;;;;;6.63;2.08;;;13.80;97.20;;;;;;1673002;29;20205;-69
2023/01/05 10:21:14;;;;;;;7.55;2.45;;;13.80;97.20;;;;;;1679786;29;20214;-70
2023/01/05 10:22:18;;;;;;;6.43;2.20;;;13.70;97.20;;;;;;1680112;29;20648;-70
2023/01/05 10:23:20;;;;;;;12.48;2.45;;;13.70;97.20;;;;;;1680643;29;20217;-70
2023/01/05 10:24:36;;;;;;;4.88;2.10;;;13.70;97.20;;;;;;1680810;29;20198;-70
2023/01/05 10:25:36;;;;;;;5.72;1.80;;;13.60;97.20;;;;;;1680704;29;20669;-70
2023/01/05 10:26:34;;;;;;;6.75;2.10;;;13.60;97.20;;;;;;1681328;29;20197;-70
2023/01/05 10:27:31;;;;;;;10.93;2.70;;;13.60;97.20;;;;;;1681200;29;20577;-70
2023/01/05 10:28:36;;;;;;;8.32;2.65;;;13.60;97.20;;;;;;1681100;29;20197;-70
2023/01/05 10:29:38;;;;;;;8.88;2.10;;;13.70;97.20;;;;;;1681203;29;20201;-70
2023/01/05 10:30:44;;;;;;;4.93;1.80;;;13.60;97.20;;;;;;1680653;29;20245;-70
2023/01/05 10:31:46;;;;;;;5.82;2.10;;;13.60;97.20;;;;;;1674283;29;20193;-69
2023/01/05 10:32:50;;;;;;;10.52;2.50;;;13.60;97.20;;;;;;1674602;29;20241;-70
2023/01/05 10:33:48;;;;;;;6.53;2.03;;;13.60;97.20;;;;;;1683310;29;20235;-70
2023/01/05 10:34:55;;;;;;;5.28;2.00;;;13.60;97.20;;;;;;1683580;29;20262;-70
2023/01/05 10:36:00;;;;;;;6.13;2.30;;;13.60;97.20;;;;;;1678851;29;20576;-70
2023/01/05 10:37:03;;;;;;;6.43;1.98;;;13.60;97.20;;;;;;1685443;29;20652;-70
2023/01/05 10:38:10;;;;;;;4.85;1.45;;;13.60;97.20;;;;;;1685641;29;20225;-70
2023/01/05 10:39:10;;;;;;;5.55;1.92;;;13.60;97.20;;;;;;1681702;29;20212;-70
2023/01/05 10:40:20;;;;;;;5.85;1.75;;;13.60;97.20;;;;;;1686768;29;20228;-70
2023/01/05 10:41:22;;;;;;;5.57;1.85;;;13.60;97.20;;;;;;1682084;29;20204;-70
2023/01/05 10:42:23;;;;;;;8.90;2.60;;;13.60;97.20;;;;;;1680663;29;20213;-70